Sligo Airport - TAF
(Terminal Area Forecast)

Issued at 07:06 UTC on Thu. 19-Jul-18

--- METARS(SA) ---

METAR EISG(SLIGO) 190200Z AUTO VRB01KT 9999 OVC049 12/10 Q1020 =

--- TAFS() ---

TAF EISG(SLIGO) 190500Z 1906/1915 VRB03KT 9999 BKN040 BECMG

1908/1911 26010KT =

--- SIGMETS(WS) ---

IE - No VALID SIGMETS/Warnings FOR THIS AREA

--- SIGMETS Volcanic(WV) ---

IE - No VALID SIGMETS/Warnings FOR THIS AREA

--- SIGMETS(WS) ---

UK - No VALID SIGMETS/Warnings FOR THIS AREA

Sligo Airport - METARs

Latest METARs for Sligo and Donegal Airports - updated every 30 mins